Time;durP1;ratioP1;P1;durP2;ratioP2;P2;SDS_P1;SDS_P2;PMS_P1;PMS_P2;Temp;Humidity;BMP_temperature;BMP_pressure;BME280_temperature;BME280_humidity;BME280_pressure;Samples;Min_cycle;Max_cycle;Signal;HPM_P1;HPM_P2
2023/12/28 00:02:15;;;;;;;1.52;0.60;;;;;;;11.05;52.91;97485.53;5045255;28;20041;-78
2023/12/28 00:04:42;;;;;;;2.15;0.90;;;;;;;11.13;53.55;97490.13;5049562;28;20056;-78
2023/12/28 00:07:08;;;;;;;2.17;0.80;;;;;;;11.14;53.30;97491.72;5043358;28;20041;-78
2023/12/28 00:09:35;;;;;;;1.50;0.93;;;;;;;11.08;53.31;97493.00;5050369;28;20041;-78
2023/12/28 00:12:02;;;;;;;1.13;0.60;;;;;;;11.00;53.68;97493.81;5044924;28;20041;-78
2023/12/28 00:14:30;;;;;;;3.80;0.73;;;;;;;11.07;53.73;97491.41;5044067;28;20128;-79
2023/12/28 00:16:56;;;;;;;1.52;0.57;;;;;;;11.06;53.22;97494.44;5051454;28;20049;-78
2023/12/28 00:19:23;;;;;;;2.70;1.00;;;;;;;11.02;53.19;97491.56;5051041;28;20512;-79
2023/12/28 00:21:50;;;;;;;3.30;0.90;;;;;;;10.93;53.46;97482.69;5034554;28;20133;-79
2023/12/28 00:24:20;;;;;;;1.33;0.70;;;;;;;10.91;53.05;97489.53;5046890;28;20510;-78
2023/12/28 00:26:47;;;;;;;2.20;0.60;;;;;;;11.11;52.52;97497.78;5055581;28;20049;-78
2023/12/28 00:29:13;;;;;;;1.70;0.68;;;;;;;11.03;52.48;97495.88;5054947;28;20473;-80
2023/12/28 00:31:40;;;;;;;2.63;0.75;;;;;;;11.19;53.03;97491.56;5057990;28;20103;-79
2023/12/28 00:34:07;;;;;;;1.27;0.63;;;;;;;11.26;52.44;97489.16;5047635;28;20455;-81
2023/12/28 00:36:34;;;;;;;1.55;0.55;;;;;;;11.16;52.49;97499.53;5049529;28;20390;-81
2023/12/28 00:39:01;;;;;;;1.23;0.60;;;;;;;11.12;52.91;97479.63;5039824;28;20512;-79
2023/12/28 00:41:28;;;;;;;0.93;0.50;;;;;;;11.10;53.39;97471.81;5031100;28;20045;-79
2023/12/28 00:43:57;;;;;;;3.40;0.80;;;;;;;11.01;53.69;97456.69;5036797;28;20041;-78
2023/12/28 00:46:24;;;;;;;1.80;0.85;;;;;;;11.00;54.39;97463.22;5060440;28;20045;-80
2023/12/28 00:48:50;;;;;;;2.17;0.60;;;;;;;10.92;54.36;97456.69;5046342;28;20499;-80
2023/12/28 00:51:17;;;;;;;1.75;0.63;;;;;;;10.72;54.61;97456.56;5049328;28;20041;-79
2023/12/28 00:53:44;;;;;;;1.63;0.70;;;;;;;10.83;55.26;97465.97;5057939;28;20041;-79
2023/12/28 00:56:11;;;;;;;1.23;0.60;;;;;;;10.83;55.00;97455.94;5053150;28;20169;-79
2023/12/28 00:58:43;;;;;;;2.47;0.80;;;;;;;10.90;54.94;97471.69;5055806;28;20037;-79
2023/12/28 01:01:10;;;;;;;1.85;0.77;;;;;;;10.84;54.95;97460.22;5057610;28;20065;-79
2023/12/28 01:03:39;;;;;;;1.35;0.65;;;;;;;10.79;55.23;97468.50;5046970;28;20087;-81
2023/12/28 01:06:06;;;;;;;1.50;0.80;;;;;;;10.67;55.21;97481.09;5049149;28;20124;-81
2023/12/28 01:08:33;;;;;;;1.77;0.68;;;;;;;10.71;55.68;97472.00;5035912;28;20045;-78
2023/12/28 01:11:01;;;;;;;1.67;0.77;;;;;;;10.81;55.64;97492.56;5036855;28;20052;-79
2023/12/28 01:13:30;;;;;;;4.07;0.80;;;;;;;10.73;55.34;97485.25;5034896;28;20057;-79
2023/12/28 01:15:57;;;;;;;0.98;0.60;;;;;;;10.54;55.32;97486.34;5033062;28;20108;-77
2023/12/28 01:18:24;;;;;;;1.20;0.70;;;;;;;10.62;55.18;97488.28;5057410;28;20051;-79
2023/12/28 01:20:51;;;;;;;3.05;0.88;;;;;;;10.63;55.41;97486.38;5059908;28;20069;-79
2023/12/28 01:23:18;;;;;;;2.92;0.73;;;;;;;10.68;55.06;97478.09;5057920;28;20064;-79
2023/12/28 01:25:45;;;;;;;2.63;0.63;;;;;;;10.78;54.31;97476.94;5044583;28;20044;-81
2023/12/28 01:28:12;;;;;;;2.00;0.80;;;;;;;10.62;54.41;97455.78;5031849;28;20109;-79
2023/12/28 01:30:39;;;;;;;1.30;0.50;;;;;;;10.73;53.68;97447.34;5052128;28;20045;-78
2023/12/28 01:33:05;;;;;;;1.17;0.60;;;;;;;10.87;53.48;97458.78;5013306;28;20041;-79
2023/12/28 01:35:32;;;;;;;1.55;0.88;;;;;;;10.97;53.23;97456.53;5058940;28;20049;-78
2023/12/28 01:38:01;;;;;;;1.45;0.60;;;;;;;10.83;52.90;97453.22;5052749;28;20076;-80
2023/12/28 01:40:28;;;;;;;1.92;0.70;;;;;;;10.94;52.48;97459.88;5051293;28;20138;-79
2023/12/28 01:42:55;;;;;;;1.90;0.70;;;;;;;10.88;52.00;97442.22;5051129;28;20046;-77
2023/12/28 01:45:22;;;;;;;0.90;0.60;;;;;;;11.02;51.83;97455.59;5044546;28;20041;-79
2023/12/28 01:47:52;;;;;;;1.00;0.65;;;;;;;10.99;50.36;97453.50;5024041;28;20049;-80
2023/12/28 01:50:20;;;;;;;2.70;0.60;;;;;;;11.17;50.22;97455.06;5032752;28;20056;-80
2023/12/28 01:52:48;;;;;;;2.05;0.80;;;;;;;11.22;49.74;97452.19;5034374;28;20045;-79
2023/12/28 01:55:16;;;;;;;2.80;0.70;;;;;;;11.40;48.60;97455.63;5031262;28;20049;-79
2023/12/28 01:57:43;;;;;;;1.00;0.60;;;;;;;11.47;48.57;97455.91;5036453;28;20766;-79
2023/12/28 02:00:11;;;;;;;1.25;0.70;;;;;;;11.49;47.61;97445.53;5045242;28;20052;-79
2023/12/28 02:02:41;;;;;;;1.50;0.60;;;;;;;11.58;46.70;97438.19;5043290;28;20042;-79
2023/12/28 02:05:11;;;;;;;1.77;0.70;;;;;;;11.72;45.67;97455.84;5048584;28;20133;-79
2023/12/28 02:07:37;;;;;;;2.08;0.85;;;;;;;11.93;45.56;97447.75;5047850;28;20049;-79
2023/12/28 02:10:05;;;;;;;0.93;0.50;;;;;;;12.04;44.34;97440.84;5044656;28;20065;-79
2023/12/28 02:12:32;;;;;;;1.10;0.65;;;;;;;12.23;44.12;97457.47;5049404;28;20076;-79
2023/12/28 02:14:59;;;;;;;2.03;0.60;;;;;;;12.22;44.36;97464.03;5025283;28;20152;-81
2023/12/28 02:17:47;;;;;;;1.00;0.52;;;;;;;12.21;44.64;97464.34;5011861;28;20073;-79
2023/12/28 02:20:15;;;;;;;0.80;0.50;;;;;;;12.15;44.72;97450.19;5010085;28;20049;-78
2023/12/28 02:22:43;;;;;;;1.60;0.60;;;;;;;12.05;44.70;97463.34;5022087;28;20052;-78
2023/12/28 02:25:13;;;;;;;1.45;0.60;;;;;;;12.09;44.47;97462.34;5028528;28;20046;-79
2023/12/28 02:27:48;;;;;;;1.90;0.82;;;;;;;12.23;45.03;97462.13;5020310;28;20095;-80
2023/12/28 02:30:24;;;;;;;1.80;1.02;;;;;;;11.99;45.90;97453.81;5024633;28;20045;-79
2023/12/28 02:33:10;;;;;;;0.88;0.50;;;;;;;12.18;45.10;97465.03;4995535;28;20050;-79
2023/12/28 02:36:11;;;;;;;3.28;0.85;;;;;;;11.92;45.49;97462.47;5037451;28;20966;-80
2023/12/28 02:38:40;;;;;;;1.38;0.60;;;;;;;11.93;45.51;97455.09;5011270;28;20046;-79
2023/12/28 02:41:09;;;;;;;2.92;0.70;;;;;;;11.97;44.49;97453.34;5009009;28;20070;-78
2023/12/28 02:43:36;;;;;;;1.63;0.90;;;;;;;12.05;45.23;97449.78;5051583;28;20124;-81
2023/12/28 02:46:03;;;;;;;3.10;0.60;;;;;;;11.96;44.54;97457.16;5041778;28;20052;-78
2023/12/28 02:48:30;;;;;;;2.05;0.85;;;;;;;12.09;44.73;97450.69;5061002;28;20061;-81
2023/12/28 02:50:57;;;;;;;1.38;0.57;;;;;;;11.95;44.72;97450.16;5035199;28;20045;-79
2023/12/28 02:53:24;;;;;;;1.52;0.50;;;;;;;11.81;45.19;97443.06;5039093;28;20648;-80
2023/12/28 02:55:51;;;;;;;2.33;0.65;;;;;;;11.88;45.67;97454.19;5047469;28;20044;-81
2023/12/28 02:58:17;;;;;;;4.15;0.90;;;;;;;11.68;46.05;97463.06;5046074;28;20037;-79
2023/12/28 03:00:44;;;;;;;1.60;0.63;;;;;;;11.57;45.87;97474.53;5035066;28;20040;-79
2023/12/28 03:03:11;;;;;;;2.63;0.88;;;;;;;11.52;46.51;97488.28;5042179;28;20040;-79
2023/12/28 03:05:38;;;;;;;1.25;0.80;;;;;;;11.52;46.53;97475.53;5035031;28;20049;-79
2023/12/28 03:08:05;;;;;;;3.20;0.75;;;;;;;11.48;47.40;97481.91;5050806;28;20056;-79
2023/12/28 03:10:33;;;;;;;1.40;0.65;;;;;;;11.41;47.28;97498.66;5046930;28;20068;-79
2023/12/28 03:13:00;;;;;;;1.38;0.70;;;;;;;11.38;47.05;97504.72;5041449;28;20050;-78
2023/12/28 03:15:28;;;;;;;1.05;0.63;;;;;;;11.40;47.07;97517.97;5035206;28;20045;-79
2023/12/28 03:17:54;;;;;;;2.63;0.65;;;;;;;11.36;47.41;97511.59;5036780;28;20041;-80
2023/12/28 03:20:22;;;;;;;1.88;0.80;;;;;;;11.39;47.91;97513.66;5046382;28;20153;-77
2023/12/28 03:22:49;;;;;;;1.33;0.80;;;;;;;11.42;47.85;97500.28;5038009;28;20121;-77
2023/12/28 03:25:15;;;;;;;3.53;1.00;;;;;;;11.43;47.97;97498.34;5047905;28;20045;-80
2023/12/28 03:27:43;;;;;;;1.27;0.90;;;;;;;11.40;47.68;97494.38;5038901;28;20664;-80
2023/12/28 03:30:11;;;;;;;1.90;0.70;;;;;;;11.50;48.03;97496.75;5049334;28;20061;-80
2023/12/28 03:32:38;;;;;;;2.65;0.93;;;;;;;11.49;47.79;97495.13;5043094;28;20065;-78
2023/12/28 03:35:06;;;;;;;1.33;0.68;;;;;;;11.62;47.65;97491.44;5050989;28;20073;-82
2023/12/28 03:37:34;;;;;;;2.40;0.82;;;;;;;11.66;47.26;97481.53;5058138;28;20400;-80
2023/12/28 03:40:01;;;;;;;1.63;0.80;;;;;;;11.68;47.25;97473.91;5050281;28;20046;-81
2023/12/28 03:42:29;;;;;;;1.33;0.70;;;;;;;11.79;47.42;97466.97;5065312;28;20068;-80
2023/12/28 03:44:59;;;;;;;1.63;0.82;;;;;;;11.75;48.19;97476.88;5056062;28;20076;-81
2023/12/28 03:47:26;;;;;;;1.90;0.82;;;;;;;11.86;47.45;97491.69;5053576;28;20052;-79
2023/12/28 03:49:52;;;;;;;2.83;1.10;;;;;;;11.83;47.44;97486.09;5061815;28;20071;-81
2023/12/28 03:52:19;;;;;;;2.13;1.02;;;;;;;11.89;47.74;97471.25;5054068;28;20042;-79
2023/12/28 03:54:46;;;;;;;2.70;1.10;;;;;;;11.87;47.25;97459.94;5070571;28;20116;-79
2023/12/28 03:57:13;;;;;;;1.92;0.90;;;;;;;11.85;47.87;97470.28;5042826;28;20099;-80
2023/12/28 03:59:40;;;;;;;1.30;0.88;;;;;;;11.79;47.98;97474.34;5044521;28;20045;-81
2023/12/28 04:02:08;;;;;;;2.38;1.05;;;;;;;11.79;48.24;97479.75;5016721;28;20046;-81
2023/12/28 04:04:35;;;;;;;1.55;1.02;;;;;;;11.80;48.39;97463.16;5028587;28;20052;-78
2023/12/28 04:07:01;;;;;;;2.75;1.00;;;;;;;11.81;48.44;97459.31;5015402;28;20590;-81
2023/12/28 04:09:28;;;;;;;4.32;1.13;;;;;;;11.92;48.74;97458.94;5016081;28;20563;-81
2023/12/28 04:11:55;;;;;;;2.25;1.08;;;;;;;11.86;48.56;97455.63;5013703;28;20045;-83
2023/12/28 04:14:22;;;;;;;2.47;1.17;;;;;;;12.03;48.74;97455.53;5032827;28;20129;-81
2023/12/28 04:16:48;;;;;;;4.45;1.10;;;;;;;11.98;48.42;97444.06;5033184;28;20069;-82
2023/12/28 04:19:15;;;;;;;2.25;1.10;;;;;;;11.63;49.13;97400.84;5016725;28;20052;-81
2023/12/28 04:21:46;;;;;;;3.13;1.20;;;;;;;11.96;49.26;97444.41;5037240;28;20046;-83
2023/12/28 04:24:13;;;;;;;2.35;1.10;;;;;;;11.82;49.03;97446.53;4999330;28;20038;-84
2023/12/28 04:26:40;;;;;;;2.83;1.02;;;;;;;12.01;49.16;97440.69;5032026;28;20049;-83
2023/12/28 04:29:07;;;;;;;2.75;1.17;;;;;;;11.90;49.81;97402.28;5020280;28;20100;-82
2023/12/28 04:31:39;;;;;;;1.95;1.10;;;;;;;11.82;50.40;97416.69;5041934;28;20041;-83
2023/12/28 04:34:06;;;;;;;2.58;1.10;;;;;;;12.01;49.66;97413.56;5029747;28;20566;-83
2023/12/28 04:36:39;;;;;;;2.17;1.02;;;;;;;11.89;49.75;97406.16;5035562;28;20048;-80
2023/12/28 04:39:06;;;;;;;2.08;1.25;;;;;;;11.97;50.00;97427.00;5028104;28;20589;-82
2023/12/28 04:41:33;;;;;;;2.20;1.02;;;;;;;12.01;49.86;97405.44;5010638;28;20120;-81
2023/12/28 04:44:00;;;;;;;2.05;1.10;;;;;;;12.10;50.47;97414.31;5006254;28;20076;-81
2023/12/28 04:46:27;;;;;;;1.73;0.90;;;;;;;11.94;50.16;97416.00;5030363;28;20450;-82
2023/12/28 04:48:54;;;;;;;2.60;0.90;;;;;;;11.93;50.21;97428.78;5021040;28;20272;-80
2023/12/28 04:51:20;;;;;;;1.55;0.98;;;;;;;11.98;50.49;97420.44;5045388;28;20045;-81
2023/12/28 04:53:47;;;;;;;2.85;1.00;;;;;;;12.07;50.63;97434.75;5056391;28;20045;-81
2023/12/28 04:56:18;;;;;;;2.15;0.90;;;;;;;12.07;50.42;97436.69;5062442;28;20276;-81
2023/12/28 04:58:45;;;;;;;2.35;1.00;;;;;;;12.12;51.12;97410.16;5035208;28;20053;-81
2023/12/28 05:01:12;;;;;;;2.75;0.90;;;;;;;12.16;51.54;97432.78;5055502;28;20080;-81
2023/12/28 05:03:39;;;;;;;2.13;1.00;;;;;;;12.08;51.77;97425.47;5053337;28;20042;-80
2023/12/28 05:06:06;;;;;;;3.38;1.10;;;;;;;12.24;53.32;97444.69;5056320;28;20079;-80
2023/12/28 05:08:33;;;;;;;2.90;1.10;;;;;;;12.17;53.58;97426.22;5054243;28;20037;-80
2023/12/28 05:11:00;;;;;;;3.40;1.00;;;;;;;12.26;54.61;97439.75;5049760;28;20239;-82
2023/12/28 05:13:27;;;;;;;4.47;1.10;;;;;;;12.20;56.21;97452.72;5043740;28;20045;-81
2023/12/28 05:15:53;;;;;;;2.53;1.00;;;;;;;12.22;56.30;97464.03;5044840;28;20063;-79
2023/12/28 05:18:20;;;;;;;3.65;1.10;;;;;;;12.19;57.28;97477.44;5065473;28;20037;-80
2023/12/28 05:20:47;;;;;;;2.80;1.00;;;;;;;12.11;58.01;97492.66;5075140;28;20044;-80
2023/12/28 05:23:14;;;;;;;2.90;0.90;;;;;;;12.14;58.76;97497.44;5047582;28;20483;-80
2023/12/28 05:25:40;;;;;;;3.97;0.93;;;;;;;12.12;60.39;97505.13;5052254;28;20056;-79
2023/12/28 05:28:07;;;;;;;2.22;1.20;;;;;;;12.01;61.82;97514.75;5048109;28;20041;-78
2023/12/28 05:30:34;;;;;;;4.05;1.25;;;;;;;12.16;62.92;97521.53;5047485;28;20068;-79
2023/12/28 05:33:02;;;;;;;2.42;1.00;;;;;;;12.06;62.32;97494.75;5048663;28;20049;-79
2023/12/28 05:35:28;;;;;;;1.60;0.80;;;;;;;12.04;63.47;97505.16;5056832;28;20124;-79
2023/12/28 05:37:55;;;;;;;3.22;1.65;;;;;;;12.05;63.75;97510.28;5052005;28;20036;-78
2023/12/28 05:40:22;;;;;;;2.47;1.10;;;;;;;11.91;64.45;97504.25;5042795;28;20092;-77
2023/12/28 05:42:49;;;;;;;3.17;0.98;;;;;;;11.64;64.91;97508.16;5051588;28;20057;-79
2023/12/28 05:45:16;;;;;;;1.05;0.77;;;;;;;11.74;64.04;97499.69;5045835;28;20511;-79
2023/12/28 05:47:43;;;;;;;4.57;1.13;;;;;;;11.67;64.42;97504.00;5053472;28;20052;-78
2023/12/28 05:50:10;;;;;;;2.08;0.85;;;;;;;11.54;64.96;97510.44;5075541;28;20056;-82
2023/12/28 05:52:36;;;;;;;3.30;1.25;;;;;;;11.54;64.61;97510.44;5053457;28;20060;-79
2023/12/28 05:55:04;;;;;;;3.15;1.30;;;;;;;11.72;65.01;97514.69;5050149;28;20041;-79
2023/12/28 05:57:31;;;;;;;2.83;1.25;;;;;;;11.50;65.39;97515.72;5038566;28;20052;-79
2023/12/28 05:59:58;;;;;;;2.75;1.20;;;;;;;11.27;64.76;97523.28;5042437;28;20060;-82
2023/12/28 06:02:25;;;;;;;3.38;1.60;;;;;;;11.48;65.65;97531.50;5050099;28;20710;-80
2023/12/28 06:04:51;;;;;;;2.65;1.08;;;;;;;11.31;65.15;97517.97;5045065;28;20046;-79
2023/12/28 06:07:19;;;;;;;2.03;0.95;;;;;;;11.23;64.44;97533.16;5021378;28;21371;-81
2023/12/28 06:09:46;;;;;;;2.78;1.20;;;;;;;11.21;64.06;97548.13;5030028;28;20045;-80
2023/12/28 06:12:12;;;;;;;3.97;1.38;;;;;;;11.27;63.42;97523.28;5031345;28;20042;-82
2023/12/28 06:14:39;;;;;;;2.75;1.27;;;;;;;11.22;63.95;97530.78;5038100;28;20067;-82
2023/12/28 06:17:06;;;;;;;3.08;1.20;;;;;;;11.39;63.94;97521.78;5042029;28;20109;-83
2023/12/28 06:19:33;;;;;;;3.25;1.20;;;;;;;11.31;64.41;97523.41;5038329;28;20041;-80
2023/12/28 06:22:00;;;;;;;2.42;1.10;;;;;;;11.34;65.78;97546.34;5031850;28;20052;-82
2023/12/28 06:24:27;;;;;;;1.75;1.17;;;;;;;11.19;66.66;97543.03;5029889;28;20129;-81
2023/12/28 06:26:54;;;;;;;6.55;1.30;;;;;;;11.19;67.63;97543.03;5035476;28;20049;-82
2023/12/28 06:29:21;;;;;;;2.30;1.20;;;;;;;11.10;69.31;97542.25;5025886;28;20041;-80
2023/12/28 06:31:48;;;;;;;2.40;1.35;;;;;;;11.03;69.82;97560.09;5027547;28;20049;-81
2023/12/28 06:34:15;;;;;;;3.90;1.40;;;;;;;11.12;70.96;97552.78;5037452;28;20098;-81
2023/12/28 06:36:43;;;;;;;2.13;1.35;;;;;;;11.30;70.64;97564.38;5019699;28;20041;-81
2023/12/28 06:39:10;;;;;;;2.22;1.30;;;;;;;11.11;71.18;97562.81;5019679;28;20117;-81
2023/12/28 06:41:37;;;;;;;5.82;1.60;;;;;;;11.20;71.55;97549.25;5049959;28;20056;-79
2023/12/28 06:44:04;;;;;;;3.97;1.60;;;;;;;11.09;72.85;97551.50;5036328;28;20052;-82
2023/12/28 06:46:30;;;;;;;4.00;1.45;;;;;;;11.05;73.60;97547.03;5023880;28;20418;-79
2023/12/28 06:48:58;;;;;;;3.03;1.30;;;;;;;11.17;72.79;97583.19;5019035;28;20049;-81
2023/12/28 06:51:26;;;;;;;5.30;1.48;;;;;;;11.13;72.62;97584.94;5018445;28;20046;-80
2023/12/28 06:53:53;;;;;;;2.75;1.45;;;;;;;10.92;73.84;97605.66;5024937;28;20057;-80
2023/12/28 06:56:20;;;;;;;3.53;1.17;;;;;;;11.03;74.05;97598.03;5014557;28;20110;-79
2023/12/28 06:58:46;;;;;;;3.10;1.23;;;;;;;10.95;74.42;97607.72;5032338;28;20059;-80
2023/12/28 07:01:13;;;;;;;3.13;1.20;;;;;;;11.01;75.78;97592.94;5040955;28;20098;-81
2023/12/28 07:03:40;;;;;;;4.57;1.15;;;;;;;11.23;76.08;97598.19;5045172;28;20399;-82
2023/12/28 07:06:08;;;;;;;4.97;1.33;;;;;;;11.31;75.13;97598.47;5041777;28;20033;-82
2023/12/28 07:08:35;;;;;;;2.40;1.20;;;;;;;11.10;75.61;97593.72;5033961;28;20040;-82
2023/12/28 07:11:03;;;;;;;4.22;1.50;;;;;;;11.26;75.45;97611.09;5045953;28;20128;-82
2023/12/28 07:13:31;;;;;;;3.35;1.50;;;;;;;11.21;76.09;97610.44;5042974;28;20132;-82
2023/12/28 07:15:58;;;;;;;4.55;1.52;;;;;;;11.08;76.02;97604.06;5054049;28;20217;-83
2023/12/28 07:18:27;;;;;;;3.72;1.30;;;;;;;11.08;77.61;97593.25;5026951;28;20046;-82
2023/12/28 07:20:55;;;;;;;2.55;1.42;;;;;;;11.12;77.66;97588.00;5025770;28;20519;-83
2023/12/28 07:23:21;;;;;;;6.03;1.50;;;;;;;11.08;78.47;97605.97;5041116;28;20077;-82
2023/12/28 07:25:48;;;;;;;4.25;1.30;;;;;;;11.03;78.04;97606.94;5036929;28;20050;-83
2023/12/28 07:28:15;;;;;;;4.25;1.48;;;;;;;11.12;79.38;97609.66;5031352;28;20400;-82
2023/12/28 07:30:42;;;;;;;2.70;1.10;;;;;;;11.02;80.06;97612.69;5045448;28;20037;-82
2023/12/28 07:33:09;;;;;;;3.72;1.50;;;;;;;11.12;81.28;97607.72;5060387;28;20049;-81
2023/12/28 07:35:36;;;;;;;2.78;1.10;;;;;;;11.13;81.83;97586.84;5040460;28;20500;-81
2023/12/28 07:38:03;;;;;;;3.22;1.45;;;;;;;11.18;82.26;97581.28;5039872;28;20045;-82
2023/12/28 07:40:30;;;;;;;2.58;1.33;;;;;;;11.05;83.45;97584.94;5051549;28;20084;-83
2023/12/28 07:42:57;;;;;;;3.60;1.50;;;;;;;11.12;83.47;97591.47;5047400;28;20063;-83
2023/12/28 07:45:24;;;;;;;3.42;1.50;;;;;;;10.99;85.50;97597.06;5065660;28;20068;-82
2023/12/28 07:47:54;;;;;;;5.65;1.60;;;;;;;11.11;84.13;97622.41;5053261;28;20045;-80
2023/12/28 07:50:21;;;;;;;4.57;1.30;;;;;;;11.05;85.95;97631.00;5063046;28;20502;-80
2023/12/28 07:52:49;;;;;;;2.50;1.35;;;;;;;10.86;85.68;97635.94;5048865;28;20060;-79
2023/12/28 07:55:16;;;;;;;4.13;1.65;;;;;;;10.79;87.20;97630.97;5051574;28;20416;-79
2023/12/28 07:57:43;;;;;;;2.83;1.40;;;;;;;10.87;87.94;97634.81;5044516;28;20428;-80
2023/12/28 08:00:10;;;;;;;6.90;1.50;;;;;;;10.93;87.94;97626.22;5039968;28;20149;-80
2023/12/28 08:02:37;;;;;;;2.58;1.40;;;;;;;10.92;87.83;97623.81;5032364;28;20049;-78
2023/12/28 08:05:05;;;;;;;6.22;1.50;;;;;;;10.93;88.34;97630.84;5057118;28;20044;-78
2023/12/28 08:07:32;;;;;;;3.22;1.33;;;;;;;10.95;89.38;97636.72;5056447;28;20550;-79
2023/12/28 08:10:00;;;;;;;3.13;1.40;;;;;;;10.88;89.07;97642.63;5025438;28;20059;-78
2023/12/28 08:12:27;;;;;;;4.72;1.42;;;;;;;10.71;89.62;97644.50;5048969;28;20071;-79
2023/12/28 08:14:55;;;;;;;3.10;1.27;;;;;;;10.86;91.34;97642.16;5049077;28;20052;-78
2023/12/28 08:17:22;;;;;;;2.97;1.30;;;;;;;11.19;89.54;97647.91;5050107;28;20037;-79
2023/12/28 08:19:49;;;;;;;3.35;1.10;;;;;;;11.14;90.50;97643.47;5046387;28;20057;-80
2023/12/28 08:22:16;;;;;;;4.57;1.25;;;;;;;10.79;92.73;97670.81;5059627;28;20056;-79
2023/12/28 08:24:44;;;;;;;2.70;1.25;;;;;;;10.71;94.94;97677.00;5051142;28;20049;-81
2023/12/28 08:27:11;;;;;;;4.90;1.30;;;;;;;10.96;96.33;97663.50;5049554;28;20068;-80
2023/12/28 08:29:40;;;;;;;3.60;1.40;;;;;;;10.74;97.62;97677.16;5050417;28;20535;-80
2023/12/28 08:32:07;;;;;;;3.58;1.20;;;;;;;10.80;99.07;97669.69;5056789;28;20445;-80
2023/12/28 08:34:34;;;;;;;2.38;1.20;;;;;;;10.72;99.06;97675.88;5035737;28;20731;-81
2023/12/28 08:37:01;;;;;;;3.25;1.40;;;;;;;10.90;99.37;97675.59;5053736;28;20075;-80
2023/12/28 08:39:28;;;;;;;4.60;1.30;;;;;;;10.80;100.00;97680.50;5047972;28;20113;-79
2023/12/28 08:41:55;;;;;;;2.60;1.42;;;;;;;10.62;100.00;97666.94;5048926;28;20064;-79
2023/12/28 08:44:22;;;;;;;2.08;1.10;;;;;;;10.71;100.00;97664.22;5039774;28;20041;-80
2023/12/28 08:46:49;;;;;;;3.78;1.38;;;;;;;10.82;100.00;97657.41;5056543;28;20049;-80
2023/12/28 08:49:16;;;;;;;4.63;1.55;;;;;;;10.98;100.00;97663.19;5058920;28;20045;-80
2023/12/28 08:51:43;;;;;;;3.67;1.10;;;;;;;10.80;100.00;97678.59;5064988;28;20072;-80
2023/12/28 08:54:11;;;;;;;4.40;1.40;;;;;;;10.48;100.00;97677.06;5058887;28;20037;-79
2023/12/28 08:56:37;;;;;;;4.40;1.40;;;;;;;10.80;100.00;97694.06;5056482;28;20049;-80
2023/12/28 08:59:04;;;;;;;2.40;1.25;;;;;;;10.93;100.00;97701.25;5053929;28;20057;-80
2023/12/28 09:01:31;;;;;;;2.33;1.23;;;;;;;10.96;100.00;97704.16;5044251;28;20056;-79
2023/12/28 09:03:59;;;;;;;4.32;1.70;;;;;;;10.82;100.00;97692.63;5056998;28;20048;-79
2023/12/28 09:06:26;;;;;;;5.22;1.38;;;;;;;10.76;100.00;97690.38;5056994;28;20045;-79
2023/12/28 09:08:54;;;;;;;4.22;1.50;;;;;;;10.67;100.00;97681.44;5061575;28;20045;-79
2023/12/28 09:11:21;;;;;;;2.55;1.33;;;;;;;10.83;100.00;97690.72;5060124;28;20041;-78
2023/12/28 09:13:48;;;;;;;3.72;1.50;;;;;;;10.81;100.00;97704.59;5058227;28;20037;-78
2023/12/28 09:16:15;;;;;;;2.55;1.40;;;;;;;10.95;100.00;97694.41;5000589;28;20064;-77
2023/12/28 09:18:43;;;;;;;5.95;1.30;;;;;;;10.98;100.00;97707.31;5050100;28;20053;-80
2023/12/28 09:21:10;;;;;;;4.90;1.42;;;;;;;10.87;100.00;97688.97;5026241;28;20156;-79
2023/12/28 09:23:38;;;;;;;3.28;1.52;;;;;;;10.87;100.00;97691.66;5049257;28;20045;-80
2023/12/28 09:26:05;;;;;;;2.90;1.20;;;;;;;10.84;100.00;97684.19;5051936;28;20061;-80
2023/12/28 09:28:33;;;;;;;3.63;1.50;;;;;;;10.72;100.00;97686.69;5044228;28;20425;-79
2023/12/28 09:31:04;;;;;;;5.55;1.42;;;;;;;10.63;100.00;97679.34;5043193;28;20072;-79
2023/12/28 09:33:31;;;;;;;2.13;1.08;;;;;;;10.75;100.00;97677.94;5029669;28;20049;-81
2023/12/28 09:35:58;;;;;;;4.00;1.48;;;;;;;10.71;100.00;97694.00;5040325;28;21767;-81
2023/12/28 09:38:26;;;;;;;3.03;1.38;;;;;;;10.74;100.00;97669.03;5024552;28;20049;-79
2023/12/28 09:40:55;;;;;;;5.47;1.60;;;;;;;10.65;100.00;97676.34;5037398;28;20037;-81
2023/12/28 09:43:30;;;;;;;2.70;1.40;;;;;;;10.62;100.00;97666.94;5018858;28;20045;-79
2023/12/28 09:45:57;;;;;;;2.08;1.35;;;;;;;10.79;100.00;97654.56;5022239;28;20503;-78
2023/12/28 09:48:24;;;;;;;6.43;1.70;;;;;;;10.73;100.00;97658.53;4991292;28;20053;-77
2023/12/28 09:50:57;;;;;;;3.33;1.40;;;;;;;10.78;100.00;97655.66;4988969;28;20045;-78
2023/12/28 09:53:25;;;;;;;4.22;1.20;;;;;;;10.60;100.00;97654.81;5016826;28;20053;-78
2023/12/28 09:55:52;;;;;;;3.95;1.42;;;;;;;10.56;100.00;97638.41;4971277;28;20069;-78
2023/12/28 09:58:21;;;;;;;2.60;1.38;;;;;;;10.60;100.00;97641.28;4990057;28;20104;-77
2023/12/28 10:00:49;;;;;;;2.72;1.38;;;;;;;10.74;100.00;97644.66;5019572;28;20061;-78
2023/12/28 10:03:17;;;;;;;3.75;1.42;;;;;;;10.86;100.00;97652.97;5029896;28;20586;-78
2023/12/28 10:05:45;;;;;;;6.75;1.20;;;;;;;10.74;100.00;97649.28;5043980;28;20057;-79
2023/12/28 10:08:13;;;;;;;2.65;1.27;;;;;;;10.78;100.00;97653.75;5026495;28;20061;-78
2023/12/28 10:10:41;;;;;;;6.32;1.70;;;;;;;10.63;100.00;97654.97;5026045;28;20091;-78
2023/12/28 10:13:09;;;;;;;3.88;1.20;;;;;;;10.83;100.00;97648.19;5042564;28;20041;-79
2023/12/28 10:15:37;;;;;;;2.80;1.40;;;;;;;10.86;100.00;97644.06;5051362;28;20101;-78
2023/12/28 10:18:05;;;;;;;4.63;1.35;;;;;;;10.83;100.00;97658.22;5022703;28;20049;-79
2023/12/28 10:20:32;;;;;;;2.38;1.23;;;;;;;10.98;100.00;97658.56;5046777;28;20103;-77
2023/12/28 10:23:00;;;;;;;4.00;1.45;;;;;;;10.92;100.00;97667.94;5043039;28;20060;-78
2023/12/28 10:25:31;;;;;;;6.13;1.80;;;;;;;11.09;100.00;97654.44;5057710;28;20091;-78
2023/12/28 10:28:04;;;;;;;2.15;1.30;;;;;;;11.02;100.00;97651.41;5046472;28;20041;-76
2023/12/28 10:30:31;;;;;;;3.63;1.40;;;;;;;10.81;100.00;97647.72;5051559;28;20393;-79
2023/12/28 10:32:58;;;;;;;2.38;1.33;;;;;;;10.90;100.00;97653.13;5031261;28;20060;-78
2023/12/28 10:35:26;;;;;;;2.47;1.50;;;;;;;11.02;100.00;97629.72;5055206;28;20032;-77
2023/12/28 10:37:57;;;;;;;2.10;1.05;;;;;;;11.08;100.00;97631.16;5053568;28;20037;-80
2023/12/28 10:40:26;;;;;;;3.08;1.40;;;;;;;11.09;100.00;97631.97;5055341;28;20069;-78
2023/12/28 10:43:02;;;;;;;5.00;1.40;;;;;;;11.05;100.00;97644.53;5053968;28;20080;-79
2023/12/28 10:45:33;;;;;;;4.97;1.30;;;;;;;11.21;100.00;97640.25;5048948;28;20526;-78
2023/12/28 10:48:11;;;;;;;2.40;1.30;;;;;;;11.22;100.00;97647.28;5049668;28;20531;-78
2023/12/28 10:50:49;;;;;;;3.30;1.80;;;;;;;11.18;100.00;97643.59;5055438;28;20045;-78
2023/12/28 10:53:44;;;;;;;1.48;1.13;;;;;;;11.32;100.00;97654.28;5049713;28;20095;-78
2023/12/28 10:56:23;;;;;;;6.38;1.20;;;;;;;11.18;100.00;97651.72;5057421;28;20057;-78
2023/12/28 10:58:54;;;;;;;2.80;1.17;;;;;;;11.19;100.00;97642.50;5052882;28;20061;-79
2023/12/28 11:01:27;;;;;;;3.95;1.27;;;;;;;11.20;100.00;97644.09;5037602;28;20064;-78
2023/12/28 11:04:16;;;;;;;2.80;1.45;;;;;;;10.93;100.00;97623.50;5065092;28;20072;-79
2023/12/28 11:06:43;;;;;;;4.88;1.27;;;;;;;10.83;100.00;97640.06;5029459;28;20419;-80
2023/12/28 11:09:12;;;;;;;3.67;1.42;;;;;;;11.23;100.00;97641.53;5054834;28;20067;-76
2023/12/28 11:11:40;;;;;;;2.20;1.10;;;;;;;10.98;100.00;97642.31;5057024;28;20060;-78
2023/12/28 11:14:08;;;;;;;2.95;1.10;;;;;;;11.00;100.00;97645.50;5056815;28;20056;-78
2023/12/28 11:16:36;;;;;;;2.50;1.13;;;;;;;10.94;100.00;97629.72;5051523;28;20048;-77
2023/12/28 11:19:04;;;;;;;2.22;1.23;;;;;;;11.08;100.00;97633.88;5048851;28;20574;-78
2023/12/28 11:21:32;;;;;;;2.42;1.15;;;;;;;10.89;100.00;97646.91;5056922;28;20056;-77
2023/12/28 11:24:00;;;;;;;4.55;1.60;;;;;;;10.85;100.00;97645.97;5054357;28;20052;-78
2023/12/28 11:26:28;;;;;;;2.10;1.00;;;;;;;11.07;100.00;97664.00;5056429;28;20034;-77
2023/12/28 11:29:04;;;;;;;3.40;1.05;;;;;;;10.96;100.00;97649.97;5053837;28;20049;-77
2023/12/28 11:31:35;;;;;;;3.05;1.20;;;;;;;11.01;100.00;97643.59;5052428;28;20045;-77
2023/12/28 11:34:07;;;;;;;2.30;1.08;;;;;;;11.04;100.00;97632.13;5052805;28;20093;-79
2023/12/28 11:36:48;;;;;;;4.28;0.90;;;;;;;11.01;100.00;97635.47;5052283;28;20114;-79